< < Back
Terminal Aerodrome Forecast


Current Version              Previous Versions:   1  2  3  4  5  6  7  8  9  

Terminal Aerodrome Forecast

803
FTUS42 KGSP 300532
TAFAVL
TAF
KAVL 300532Z 3006/3106 34004KT P6SM BKN110
     FM300800 33004KT 5SM BR SCT090
      TEMPO 3009/3013 3SM BR SCT003
     FM301300 34004KT P6SM FEW050 SCT120
     FM301500 34005KT P6SM SCT060
     FM301800 32005KT P6SM BKN070 PROB30 3020/3024 4SM -TSRA
      OVC040CB
     FM310000 31004KT P6SM VCTS SCT070CB=

Latest METAR

955
SAUS70 KWBC 302000 RRK
MTRAVL
METAR KAVL 301954Z 34013G23KT 1 1/4SM +TSRA BR SCT020 BKN033 OVC055
21/19 A3008 RMK AO2 PK WND 33028/1942 WSHFT 1930 LTG DSNT NE
AND E AND SW RAB47 TSB35 SLP163 P0009 T02110194


USA.gov is the U.S. government's official web portal to all federal, state and local government web resources and services.